Time;durP1;ratioP1;P1;durP2;ratioP2;P2;SDS_P1;SDS_P2;PMS_P1;PMS_P2;Temp;Humidity;BMP_temperature;BMP_pressure;BME280_temperature;BME280_humidity;BME280_pressure;Samples;Min_cycle;Max_cycle;Signal;HPM_P1;HPM_P2
2022/11/29 00:01:35;;;;;;;27.27;18.63;;;;;;;8.96;100.00;101319.78;4975284;28;20043;-48
2022/11/29 00:04:03;;;;;;;26.17;17.77;;;;;;;8.91;100.00;101320.50;4977652;28;20080;-48
2022/11/29 00:06:32;;;;;;;25.77;18.05;;;;;;;8.87;100.00;101323.97;4962120;28;20054;-49
2022/11/29 00:09:05;;;;;;;22.30;16.52;;;;;;;8.83;100.00;101318.22;4973191;28;20047;-49
2022/11/29 00:14:23;;;;;;;24.52;17.15;;;;;;;8.77;100.00;101323.78;4984139;28;20505;-49
2022/11/29 00:16:53;;;;;;;23.48;17.40;;;;;;;8.76;100.00;101328.41;4975051;28;20053;-49
2022/11/29 00:19:21;;;;;;;24.20;16.88;;;;;;;8.76;100.00;101330.31;4970475;28;20460;-48
2022/11/29 00:21:49;;;;;;;25.17;17.23;;;;;;;8.75;100.00;101329.44;4982742;28;20045;-48
2022/11/29 00:24:17;;;;;;;21.90;16.45;;;;;;;8.73;100.00;101318.00;4986388;28;20060;-50
2022/11/29 00:26:44;;;;;;;22.25;16.98;;;;;;;8.68;100.00;101321.47;4973406;28;20046;-46
2022/11/29 00:29:13;;;;;;;23.90;16.55;;;;;;;8.62;100.00;101325.16;4969401;28;20089;-46
2022/11/29 00:31:40;;;;;;;22.75;17.52;;;;;;;8.58;100.00;101326.69;4976053;28;20049;-48
2022/11/29 00:34:10;;;;;;;24.88;17.33;;;;;;;8.58;100.00;101332.13;4979896;28;20050;-48
2022/11/29 00:36:38;;;;;;;23.80;15.88;;;;;;;8.61;100.00;101330.81;4980251;28;20047;-53
2022/11/29 00:39:10;;;;;;;21.83;17.02;;;;;;;8.66;100.00;101336.34;4978287;28;20038;-48
2022/11/29 00:41:38;;;;;;;21.75;16.70;;;;;;;8.70;100.00;101334.78;4942172;28;20078;-49
2022/11/29 00:44:05;;;;;;;20.23;16.98;;;;;;;8.73;100.00;101326.16;4974147;28;20089;-48
2022/11/29 00:46:33;;;;;;;22.45;16.27;;;;;;;8.72;100.00;101332.66;4974284;28;20442;-51
2022/11/29 00:49:01;;;;;;;21.02;15.82;;;;;;;8.71;100.00;101328.31;4960459;28;20046;-49
2022/11/29 00:51:28;;;;;;;23.05;16.13;;;;;;;8.71;100.00;101331.03;4987625;28;20049;-49
2022/11/29 00:53:56;;;;;;;23.75;15.93;;;;;;;8.71;100.00;101336.47;4977314;28;20097;-50
2022/11/29 00:56:24;;;;;;;21.10;15.82;;;;;;;8.73;100.00;101334.28;4961962;28;20062;-51
2022/11/29 00:58:51;;;;;;;22.00;16.35;;;;;;;8.73;100.00;101326.16;4986942;28;20038;-50
2022/11/29 01:01:19;;;;;;;22.25;15.75;;;;;;;8.73;100.00;101337.00;4979843;28;20042;-51
2022/11/29 01:03:47;;;;;;;22.90;15.77;;;;;;;8.72;100.00;101333.47;4969747;28;20468;-50
2022/11/29 01:06:16;;;;;;;18.38;14.07;;;;;;;8.72;100.00;101338.91;4976186;28;20046;-52
2022/11/29 01:08:44;;;;;;;22.20;16.00;;;;;;;8.73;100.00;101340.59;4991527;28;20047;-51
2022/11/29 01:11:21;;;;;;;20.33;15.55;;;;;;;8.73;100.00;101339.72;4965827;28;20432;-51
2022/11/29 01:13:50;;;;;;;23.85;16.70;;;;;;;8.72;100.00;101343.53;4991775;28;20501;-47
2022/11/29 01:16:17;;;;;;;23.02;16.48;;;;;;;8.71;100.00;101331.03;4972172;28;20050;-49
2022/11/29 01:18:45;;;;;;;25.67;17.30;;;;;;;8.72;100.00;101340.81;4973729;28;20062;-49
2022/11/29 01:21:18;;;;;;;22.45;15.95;;;;;;;8.72;100.00;101338.09;4980467;28;20051;-54
2022/11/29 01:23:46;;;;;;;23.45;16.35;;;;;;;8.70;100.00;101340.22;4983117;28;20047;-52
2022/11/29 01:26:18;;;;;;;23.33;16.73;;;;;;;8.66;100.00;101333.63;4951872;28;20485;-48
2022/11/29 01:28:47;;;;;;;21.05;15.90;;;;;;;8.64;100.00;101335.78;4973170;28;20405;-50
2022/11/29 01:31:18;;;;;;;21.92;16.17;;;;;;;8.64;100.00;101336.59;4976732;28;20047;-48
2022/11/29 01:33:46;;;;;;;24.98;16.52;;;;;;;8.64;100.00;101336.59;4985359;28;20053;-48
2022/11/29 01:36:14;;;;;;;23.23;17.58;;;;;;;8.62;100.00;101343.34;4973238;28;20042;-51
2022/11/29 01:38:42;;;;;;;22.38;17.15;;;;;;;8.54;100.00;101344.56;4973506;28;20122;-51
2022/11/29 01:41:12;;;;;;;22.58;16.48;;;;;;;8.49;100.00;101344.44;4973442;28;20548;-52
2022/11/29 01:43:58;;;;;;;22.90;16.40;;;;;;;8.49;100.00;101356.13;4986356;28;20085;-49
2022/11/29 01:46:28;;;;;;;21.77;17.25;;;;;;;8.52;100.00;101352.94;4982434;28;20043;-49
2022/11/29 01:49:17;;;;;;;22.08;16.67;;;;;;;8.56;100.00;101355.16;4964069;28;20038;-51
2022/11/29 01:52:06;;;;;;;20.80;15.90;;;;;;;8.52;100.00;101361.09;4973682;28;20051;-49
2022/11/29 01:54:37;;;;;;;19.55;15.85;;;;;;;8.50;100.00;101360.50;4986497;28;20050;-51
2022/11/29 01:57:07;;;;;;;20.55;16.63;;;;;;;8.51;100.00;101364.88;4975936;28;20409;-49
2022/11/29 01:59:37;;;;;;;21.25;16.40;;;;;;;8.53;100.00;101357.28;4956999;28;20046;-49
2022/11/29 02:02:12;;;;;;;21.35;16.60;;;;;;;8.52;100.00;101357.53;4973824;28;20051;-52
2022/11/29 02:04:42;;;;;;;22.08;16.52;;;;;;;8.50;100.00;101355.06;4974517;28;20105;-47
2022/11/29 02:07:11;;;;;;;21.92;17.15;;;;;;;8.43;100.00;101357.09;4977611;28;20068;-50
2022/11/29 02:09:38;;;;;;;21.08;16.77;;;;;;;8.35;100.00;101359.34;4961914;28;20449;-49
2022/11/29 02:12:09;;;;;;;20.92;17.33;;;;;;;8.24;100.00;101359.09;4985500;28;20042;-50
2022/11/29 02:14:48;;;;;;;22.42;17.73;;;;;;;8.22;100.00;101365.84;4995522;28;20727;-49
2022/11/29 02:17:26;;;;;;;22.35;18.20;;;;;;;8.25;100.00;101368.06;4971907;28;20099;-52
2022/11/29 02:20:26;;;;;;;22.33;18.10;;;;;;;8.31;100.00;101364.41;4972641;28;20043;-51
2022/11/29 02:23:18;;;;;;;21.35;17.92;;;;;;;8.36;100.00;101372.66;4918426;28;20059;-50
2022/11/29 02:26:07;;;;;;;19.60;16.60;;;;;;;8.38;100.00;101375.97;4984991;28;20051;-51
2022/11/29 02:29:13;;;;;;;19.00;15.93;;;;;;;8.39;100.00;101374.88;4972118;28;20043;-51
2022/11/29 02:32:18;;;;;;;18.50;15.77;;;;;;;8.41;100.00;101374.69;4952251;28;20047;-50
2022/11/29 02:34:51;;;;;;;20.23;15.68;;;;;;;8.38;100.00;101367.81;5007308;28;20058;-51
2022/11/29 02:37:41;;;;;;;18.20;15.23;;;;;;;8.38;100.00;101370.53;5012462;28;20420;-52
2022/11/29 02:40:20;;;;;;;18.58;15.18;;;;;;;8.36;100.00;101372.66;5015998;28;20037;-49
2022/11/29 02:42:56;;;;;;;18.25;14.77;;;;;;;8.35;100.00;101370.19;5003138;28;20046;-47
2022/11/29 02:45:55;;;;;;;17.27;13.80;;;;;;;8.32;100.00;101372.31;4984338;28;20448;-49
2022/11/29 02:48:32;;;;;;;15.98;14.18;;;;;;;8.30;100.00;101376.34;4993182;28;20047;-50
2022/11/29 02:51:34;;;;;;;17.77;14.23;;;;;;;8.30;100.00;101379.88;4996224;28;20042;-50
2022/11/29 02:54:11;;;;;;;16.30;13.00;;;;;;;8.33;100.00;101373.16;4986055;28;20389;-50
2022/11/29 02:56:57;;;;;;;18.63;14.18;;;;;;;8.34;100.00;101385.66;5008478;28;20034;-49
2022/11/29 02:59:49;;;;;;;16.63;13.40;;;;;;;8.34;100.00;101391.06;5007940;28;20046;-50
2022/11/29 03:02:31;;;;;;;16.58;13.40;;;;;;;8.33;100.00;101394.88;5015268;28;20054;-51
2022/11/29 03:05:17;;;;;;;16.30;12.32;;;;;;;8.31;100.00;101397.00;4983967;28;20038;-51
2022/11/29 03:07:54;;;;;;;15.75;12.32;;;;;;;8.29;100.00;101401.81;5005485;28;20073;-50
2022/11/29 03:10:54;;;;;;;16.73;12.57;;;;;;;8.27;100.00;101402.09;5003399;28;20049;-51
2022/11/29 03:14:02;;;;;;;15.48;12.15;;;;;;;8.26;100.00;101405.03;4993332;28;20042;-48
2022/11/29 03:16:33;;;;;;;15.82;12.32;;;;;;;8.29;100.00;101409.97;4933938;29;20048;-49
2022/11/29 03:19:22;;;;;;;17.20;12.52;;;;;;;8.32;100.00;101409.50;4985229;28;20081;-49
2022/11/29 03:22:18;;;;;;;16.35;13.25;;;;;;;8.31;100.00;101416.00;4991430;28;20089;-52
2022/11/29 03:25:03;;;;;;;15.30;12.40;;;;;;;8.31;100.00;101418.72;4960560;28;20093;-46
2022/11/29 03:27:54;;;;;;;15.80;12.85;;;;;;;8.33;100.00;101416.59;5012455;28;20096;-52
2022/11/29 03:30:22;;;;;;;16.17;13.30;;;;;;;8.33;100.00;101417.41;4982929;28;20058;-50
2022/11/29 03:33:20;;;;;;;17.40;13.02;;;;;;;8.33;100.00;101422.00;5008619;28;20038;-48
2022/11/29 03:35:58;;;;;;;16.00;12.90;;;;;;;8.32;100.00;101418.47;4967315;28;20506;-47
2022/11/29 03:38:32;;;;;;;17.48;13.25;;;;;;;8.33;100.00;101427.44;4974494;28;20054;-50
2022/11/29 03:41:08;;;;;;;17.85;13.20;;;;;;;8.35;100.00;101424.50;4974420;28;20050;-50
2022/11/29 03:43:38;;;;;;;;;;;;;;;8.36;100.00;101435.09;4975984;28;20038;-50
2022/11/29 03:46:22;;;;;;;16.63;12.40;;;;;;;8.34;100.00;101429.09;4978182;28;19963;-50
2022/11/29 03:48:59;;;;;;;18.23;13.60;;;;;;;8.33;100.00;101428.25;4979423;28;20501;-49
2022/11/29 03:51:44;;;;;;;19.98;13.15;;;;;;;8.33;100.00;101432.88;4967805;28;20053;-50
2022/11/29 03:54:17;;;;;;;23.10;13.50;;;;;;;8.33;100.00;101432.88;4976226;28;20054;-56
2022/11/29 03:56:44;;;;;;;24.05;13.50;;;;;;;8.35;100.00;101444.34;4974263;28;20043;-49
2022/11/29 03:59:30;;;;;;;24.25;13.82;;;;;;;8.36;100.00;101440.53;4989761;28;20057;-49
2022/11/29 04:02:42;;;;;;;25.67;14.85;;;;;;;8.37;100.00;101450.34;4984068;28;20047;-48
2022/11/29 04:05:16;;;;;;;27.08;15.50;;;;;;;8.37;100.00;101446.78;4991544;28;20046;-48
2022/11/29 04:08:20;;;;;;;27.48;15.63;;;;;;;8.36;100.00;101448.69;5007196;28;20042;-53
2022/11/29 04:11:27;;;;;;;24.67;14.82;;;;;;;8.35;100.00;101451.66;4974866;28;20043;-51
2022/11/29 04:14:13;;;;;;;29.88;14.57;;;;;;;8.34;100.00;101461.66;4982534;28;20045;-49
2022/11/29 04:17:09;;;;;;;28.23;14.95;;;;;;;8.34;100.00;101456.25;4995527;28;20089;-49
2022/11/29 04:19:51;;;;;;;30.00;15.38;;;;;;;8.32;100.00;101456.50;5014063;28;20046;-51
2022/11/29 04:22:36;;;;;;;27.73;15.43;;;;;;;8.33;100.00;101460.84;5005080;28;20042;-52
2022/11/29 04:25:26;;;;;;;26.87;16.27;;;;;;;8.33;100.00;101465.47;5006780;28;20035;-49
2022/11/29 04:27:53;;;;;;;30.05;14.52;;;;;;;8.36;100.00;101472.31;5000078;28;20304;-49
2022/11/29 04:30:22;;;;;;;27.45;15.02;;;;;;;8.35;100.00;101467.94;5013717;28;20077;-49
2022/11/29 04:33:21;;;;;;;29.33;15.02;;;;;;;8.35;100.00;101476.91;4996158;28;20100;-49
2022/11/29 04:36:07;;;;;;;30.73;15.80;;;;;;;8.38;100.00;101473.72;4986421;28;20497;-49
2022/11/29 04:38:52;;;;;;;29.48;16.58;;;;;;;8.39;100.00;101472.63;4969137;28;20058;-50
2022/11/29 04:41:53;;;;;;;31.83;15.82;;;;;;;8.41;100.00;101483.31;4974625;28;20061;-47
2022/11/29 04:44:44;;;;;;;28.23;16.65;;;;;;;8.39;100.00;101485.41;4976555;28;20035;-48
2022/11/29 04:47:37;;;;;;;30.13;17.38;;;;;;;8.38;100.00;101484.56;4973286;28;20100;-48
2022/11/29 04:50:42;;;;;;;30.48;17.50;;;;;;;8.34;100.00;101494.25;4985099;28;20050;-50
2022/11/29 04:53:16;;;;;;;35.33;17.50;;;;;;;8.29;100.00;101491.41;4977276;28;20034;-51
2022/11/29 04:56:02;;;;;;;33.65;18.45;;;;;;;8.29;100.00;101499.56;5013336;28;20045;-48
2022/11/29 04:58:33;;;;;;;;;;;;;;;8.33;100.00;101492.63;5013685;28;20038;-49
2022/11/29 05:01:06;;;;;;;30.92;17.63;;;;;;;8.37;100.00;101499.22;5003120;28;19980;-49
2022/11/29 05:03:38;;;;;;;32.58;18.15;;;;;;;8.39;100.00;101501.69;4995421;28;20500;-50
2022/11/29 05:06:16;;;;;;;31.90;17.38;;;;;;;8.39;100.00;101494.38;4994830;28;20049;-52
2022/11/29 05:08:47;;;;;;;32.58;17.67;;;;;;;8.40;100.00;101490.63;5012025;28;20046;-49
2022/11/29 05:11:20;;;;;;;31.98;17.60;;;;;;;8.41;100.00;101505.03;5009777;28;20471;-49
2022/11/29 05:14:07;;;;;;;34.35;18.23;;;;;;;8.39;100.00;101507.94;4999751;28;20072;-49
2022/11/29 05:17:00;;;;;;;30.30;18.48;;;;;;;8.38;100.00;101513.63;5000790;28;20046;-48
2022/11/29 05:19:46;;;;;;;33.90;18.73;;;;;;;8.36;100.00;101511.13;4963267;28;20046;-53
2022/11/29 05:22:28;;;;;;;;;;;;;;;8.34;100.00;101515.97;4986920;28;20042;-49
2022/11/29 05:24:55;;;;;;;41.28;20.88;;;;;;;8.28;100.00;101516.94;4983943;28;19922;-50
2022/11/29 05:27:31;;;;;;;34.65;20.42;;;;;;;8.19;100.00;101523.75;5007102;28;20038;-49
2022/11/29 05:30:13;;;;;;;36.00;19.87;;;;;;;8.17;100.00;101529.41;4989302;28;20405;-52
2022/11/29 05:32:56;;;;;;;32.60;19.40;;;;;;;8.19;100.00;101523.75;4995401;28;20452;-49
2022/11/29 05:35:33;;;;;;;33.35;19.00;;;;;;;8.21;100.00;101524.38;4983475;28;20039;-49
2022/11/29 05:38:03;;;;;;;;;;;;;;;8.22;100.00;101526.00;4962307;28;20066;-49
2022/11/29 05:40:43;;;;;;;32.15;17.52;;;;;;;8.25;100.00;101530.94;4974576;28;20308;-49
2022/11/29 05:43:22;;;;;;;34.72;18.98;;;;;;;8.24;100.00;101537.47;4973844;28;20391;-50
2022/11/29 05:46:08;;;;;;;32.53;18.50;;;;;;;8.26;100.00;101546.19;4974542;28;20098;-48
2022/11/29 05:48:46;;;;;;;30.33;18.20;;;;;;;8.27;100.00;101542.41;4968262;28;20047;-50
2022/11/29 05:51:13;;;;;;;35.22;19.85;;;;;;;8.27;100.00;101542.41;4977159;28;20054;-48
2022/11/29 05:54:09;;;;;;;36.33;19.92;;;;;;;8.27;100.00;101547.84;4986511;28;20049;-49
2022/11/29 05:56:59;;;;;;;32.55;18.65;;;;;;;8.26;100.00;101557.88;4977348;28;20105;-48
2022/11/29 05:59:28;;;;;;;33.97;18.70;;;;;;;8.26;100.00;101557.06;4973070;28;20448;-49
2022/11/29 06:02:02;;;;;;;31.60;18.27;;;;;;;8.26;100.00;101557.88;4967907;28;20041;-53
2022/11/29 06:04:56;;;;;;;32.97;18.63;;;;;;;8.29;100.00;101567.44;4982300;28;20572;-48
2022/11/29 06:07:48;;;;;;;33.35;19.00;;;;;;;8.29;100.00;101567.44;4961205;28;20046;-49
2022/11/29 06:10:22;;;;;;;33.88;20.35;;;;;;;8.28;100.00;101566.63;4970395;28;20042;-50
2022/11/29 06:13:17;;;;;;;31.65;18.92;;;;;;;8.27;100.00;101569.56;4300733;28;10000538;-52
2022/11/29 06:16:35;;;;;;;32.57;19.17;;;;;;;8.25;100.00;101575.25;4973995;28;20084;-50
2022/11/29 06:19:25;;;;;;;33.03;19.55;;;;;;;8.24;100.00;101580.91;4951147;28;20046;-53
2022/11/29 06:22:23;;;;;;;32.15;18.85;;;;;;;8.24;100.00;101578.19;4970382;28;20039;-46
2022/11/29 06:25:32;;;;;;;35.20;20.42;;;;;;;8.27;100.00;101578.56;4988594;28;20050;-45
2022/11/29 06:28:32;;;;;;;32.75;18.65;;;;;;;8.31;100.00;101581.63;4972324;28;20043;-49
2022/11/29 06:31:02;;;;;;;33.15;19.30;;;;;;;8.30;100.00;101585.41;4973816;28;20070;-49
2022/11/29 06:33:43;;;;;;;33.20;18.70;;;;;;;8.31;100.00;101582.44;4974389;28;20695;-49
2022/11/29 06:36:24;;;;;;;31.83;18.88;;;;;;;8.31;100.00;101587.03;4963498;28;20054;-49
2022/11/29 06:38:52;;;;;;;35.88;20.85;;;;;;;8.30;100.00;101597.09;4971600;28;20113;-44
2022/11/29 06:41:22;;;;;;;38.65;23.42;;;;;;;8.29;100.00;101600.84;4963427;28;20042;-51
2022/11/29 06:43:50;;;;;;;33.85;20.67;;;;;;;8.29;100.00;101600.03;4978187;28;20125;-50
2022/11/29 06:46:24;;;;;;;35.78;21.08;;;;;;;8.27;100.00;101604.84;4983373;28;20516;-50
2022/11/29 06:49:22;;;;;;;37.03;22.20;;;;;;;8.27;100.00;101607.56;4973010;28;20066;-48
2022/11/29 06:51:56;;;;;;;34.42;20.55;;;;;;;8.27;100.00;101615.72;4964031;28;20493;-52
2022/11/29 06:54:47;;;;;;;32.20;19.45;;;;;;;8.27;100.00;101623.84;4974678;28;20097;-49
2022/11/29 06:57:32;;;;;;;32.45;20.20;;;;;;;8.26;100.00;101628.47;4978558;28;20042;-50
2022/11/29 07:00:10;;;;;;;35.05;20.20;;;;;;;8.25;100.00;101632.25;4972668;28;20158;-54
2022/11/29 07:02:40;;;;;;;35.75;20.40;;;;;;;8.24;100.00;101636.00;4972810;28;20482;-51
2022/11/29 07:05:20;;;;;;;31.88;17.92;;;;;;;8.23;100.00;101633.56;4980064;28;20413;-49
2022/11/29 07:07:48;;;;;;;36.05;18.98;;;;;;;8.23;100.00;101633.56;4972404;28;20125;-49
2022/11/29 07:10:17;;;;;;;34.58;19.13;;;;;;;8.22;100.00;101637.31;4972567;28;20054;-47
2022/11/29 07:12:46;;;;;;;30.50;18.88;;;;;;;8.22;100.00;101642.72;4982110;28;20093;-50
2022/11/29 07:15:17;;;;;;;35.97;18.70;;;;;;;8.21;100.00;101647.34;4982227;28;20034;-51
2022/11/29 07:17:53;;;;;;;36.35;18.13;;;;;;;8.19;100.00;101645.91;4987189;28;20034;-48
2022/11/29 07:20:30;;;;;;;29.65;18.13;;;;;;;8.19;100.00;101648.63;4984550;28;20479;-49
2022/11/29 07:23:31;;;;;;;36.22;20.15;;;;;;;8.15;100.00;101652.88;4986316;28;20054;-48
2022/11/29 07:26:34;;;;;;;35.00;19.13;;;;;;;8.06;100.00;101661.34;4980677;28;20121;-51
2022/11/29 07:29:06;;;;;;;37.55;20.70;;;;;;;8.02;100.00;101665.56;4968353;28;20042;-54
2022/11/29 07:31:52;;;;;;;40.65;21.08;;;;;;;8.02;100.00;101668.28;4985751;28;20039;-51
2022/11/29 07:34:52;;;;;;;29.27;17.98;;;;;;;8.02;100.00;101665.56;4977074;28;20046;-51
2022/11/29 07:38:08;;;;;;;27.95;18.88;;;;;;;8.06;100.00;101671.38;4968827;28;20047;-49
2022/11/29 07:40:59;;;;;;;32.35;18.23;;;;;;;8.08;100.00;101669.25;4964360;28;20053;-50
2022/11/29 07:43:37;;;;;;;28.98;18.45;;;;;;;8.10;100.00;101673.41;4965561;28;20062;-48
2022/11/29 07:46:04;;;;;;;31.88;18.70;;;;;;;8.10;100.00;101673.41;4976254;28;20042;-51
2022/11/29 07:48:32;;;;;;;29.50;18.83;;;;;;;8.10;100.00;101673.41;4982313;28;20493;-51
2022/11/29 07:51:00;;;;;;;28.63;18.45;;;;;;;8.10;100.00;101678.84;4974296;28;20496;-51
2022/11/29 07:53:29;;;;;;;29.27;18.23;;;;;;;8.10;100.00;101678.84;4973962;28;20101;-54
2022/11/29 07:55:57;;;;;;;30.42;18.58;;;;;;;8.10;100.00;101676.13;4959972;28;20039;-49
2022/11/29 07:58:25;;;;;;;28.45;18.63;;;;;;;8.10;100.00;101686.97;4985866;28;20471;-48
2022/11/29 08:00:52;;;;;;;29.25;18.05;;;;;;;8.11;100.00;101690.50;4971081;28;20039;-51
2022/11/29 08:03:20;;;;;;;27.20;18.13;;;;;;;8.11;100.00;101694.06;4975093;28;20047;-50
2022/11/29 08:05:48;;;;;;;30.45;18.33;;;;;;;8.11;100.00;101688.63;4974626;28;20051;-49
2022/11/29 08:08:15;;;;;;;29.50;18.38;;;;;;;8.10;100.00;101692.41;4974647;28;20053;-50
2022/11/29 08:10:43;;;;;;;28.85;18.75;;;;;;;8.08;100.00;101682.81;4983873;28;20045;-51
2022/11/29 08:13:11;;;;;;;28.02;18.40;;;;;;;8.13;100.00;101698.41;4985395;28;20119;-53
2022/11/29 08:15:45;;;;;;;28.65;18.20;;;;;;;8.13;100.00;101692.97;4970232;28;20043;-47
2022/11/29 08:18:14;;;;;;;30.33;18.85;;;;;;;8.15;100.00;101682.72;4977838;28;20039;-49
2022/11/29 08:20:42;;;;;;;29.95;18.95;;;;;;;8.16;100.00;101687.13;4977338;28;20038;-52
2022/11/29 08:23:11;;;;;;;33.20;18.38;;;;;;;8.19;100.00;101689.34;4977842;28;20046;-53
2022/11/29 08:25:41;;;;;;;33.92;20.30;;;;;;;8.16;100.00;101682.50;4975044;28;20062;-48
2022/11/29 08:28:11;;;;;;;33.50;20.30;;;;;;;8.13;100.00;101695.69;4956144;28;20043;-48
2022/11/29 08:30:39;;;;;;;33.30;19.85;;;;;;;8.09;100.00;101693.44;4974782;28;20043;-50
2022/11/29 08:33:06;;;;;;;32.17;19.77;;;;;;;8.11;100.00;101695.94;4956024;28;20047;-50
2022/11/29 08:35:34;;;;;;;29.77;18.45;;;;;;;8.13;100.00;101703.84;4974387;28;20051;-51
2022/11/29 08:38:03;;;;;;;34.53;20.02;;;;;;;8.10;100.00;101695.13;4974524;28;20114;-49
2022/11/29 08:40:31;;;;;;;31.33;19.38;;;;;;;8.14;100.00;101705.50;4974242;28;20042;-49
2022/11/29 08:42:58;;;;;;;31.13;19.33;;;;;;;8.13;100.00;101709.25;4979725;28;20054;-49
2022/11/29 08:45:26;;;;;;;37.10;20.42;;;;;;;8.12;100.00;101716.59;4974273;28;20039;-48
2022/11/29 08:47:54;;;;;;;31.83;19.55;;;;;;;8.12;100.00;101713.88;4974184;28;20039;-50
2022/11/29 08:50:21;;;;;;;31.45;18.65;;;;;;;8.13;100.00;101720.13;4974114;28;20053;-52
2022/11/29 08:55:39;;;;;;;32.13;19.20;;;;;;;8.13;100.00;101725.56;4974448;28;20456;-50
2022/11/29 08:58:10;;;;;;;35.75;20.60;;;;;;;8.11;100.00;101726.63;4974124;28;20047;-49
2022/11/29 09:00:39;;;;;;;31.02;19.10;;;;;;;8.09;100.00;101734.16;4974250;28;20055;-48
2022/11/29 09:05:54;;;;;;;31.27;20.00;;;;;;;8.10;100.00;101743.13;4979585;28;20509;-48
2022/11/29 09:08:21;;;;;;;35.65;20.75;;;;;;;8.08;100.00;101740.66;4956558;28;20051;-48
2022/11/29 09:10:49;;;;;;;31.13;19.85;;;;;;;8.08;100.00;101740.66;4972794;28;20043;-51
2022/11/29 09:13:17;;;;;;;38.28;21.45;;;;;;;8.11;100.00;101744.81;4982870;28;20505;-51
2022/11/29 09:15:44;;;;;;;32.80;20.50;;;;;;;8.13;100.00;101752.69;4974149;28;20090;-49
2022/11/29 09:18:12;;;;;;;33.78;20.45;;;;;;;8.13;100.00;101752.69;4973807;28;20402;-48
2022/11/29 09:20:45;;;;;;;32.28;20.77;;;;;;;8.14;100.00;101759.81;4976899;28;20054;-51
2022/11/29 09:23:13;;;;;;;30.92;20.05;;;;;;;8.11;100.00;101761.91;4979758;28;20055;-48
2022/11/29 09:25:45;;;;;;;30.75;19.48;;;;;;;8.09;100.00;101761.31;4977701;28;20117;-48
2022/11/29 09:28:13;;;;;;;31.70;19.95;;;;;;;8.08;100.00;101765.09;4972489;28;20043;-50
2022/11/29 09:30:41;;;;;;;32.17;19.27;;;;;;;8.08;100.00;101764.22;4977706;28;20046;-51
2022/11/29 09:33:08;;;;;;;33.33;20.52;;;;;;;8.08;100.00;101773.22;4974789;28;20074;-51
2022/11/29 09:35:36;;;;;;;31.65;20.15;;;;;;;8.07;100.00;101782.41;4977470;28;20047;-49
2022/11/29 09:38:04;;;;;;;28.80;18.92;;;;;;;8.05;100.00;101779.09;4977394;28;20054;-49
2022/11/29 09:40:49;;;;;;;32.42;18.92;;;;;;;8.06;100.00;101778.06;4977472;28;20043;-50
2022/11/29 09:43:52;;;;;;;30.98;19.55;;;;;;;8.08;100.00;101778.66;4977545;28;20038;-50
2022/11/29 09:46:22;;;;;;;31.33;17.83;;;;;;;8.09;100.00;101774.88;4905390;29;20052;-52
2022/11/29 09:49:17;;;;;;;27.73;17.75;;;;;;;8.09;100.00;101780.31;4980508;28;20061;-50
2022/11/29 09:52:01;;;;;;;28.67;18.15;;;;;;;8.07;100.00;101781.59;5010190;28;20041;-48
2022/11/29 09:54:37;;;;;;;26.65;16.42;;;;;;;8.04;100.00;101791.03;5014924;28;20550;-51
2022/11/29 09:57:05;;;;;;;;;;;;;;;8.04;100.00;101799.16;5016729;28;20046;-48
2022/11/29 09:59:41;;;;;;;30.25;17.42;;;;;;;8.03;100.00;101792.09;5016358;28;19983;-47
2022/11/29 10:02:28;;;;;;;26.40;16.35;;;;;;;8.04;100.00;101799.16;4992389;28;20473;-51
2022/11/29 10:05:25;;;;;;;25.05;16.52;;;;;;;8.04;100.00;101796.44;5016114;28;20073;-50
2022/11/29 10:08:08;;;;;;;23.77;14.93;;;;;;;8.01;100.00;101799.63;5016121;28;20459;-50
2022/11/29 10:10:48;;;;;;;27.17;16.60;;;;;;;8.00;100.00;101803.38;4982477;28;20042;-51
2022/11/29 10:13:36;;;;;;;23.90;15.30;;;;;;;8.01;100.00;101799.63;4979205;28;20034;-52
2022/11/29 10:16:30;;;;;;;29.13;17.45;;;;;;;8.02;100.00;101806.69;5016284;28;20108;-49
2022/11/29 10:19:08;;;;;;;26.90;16.38;;;;;;;7.99;100.00;101804.44;4998553;28;20087;-51
2022/11/29 10:21:37;;;;;;;23.88;15.70;;;;;;;7.96;100.00;101795.91;4987452;28;20497;-52
2022/11/29 10:24:16;;;;;;;23.52;15.27;;;;;;;7.92;100.00;101795.53;4992552;28;20060;-50
2022/11/29 10:26:44;;;;;;;25.95;16.33;;;;;;;7.92;100.00;101790.13;4999156;28;20089;-49
2022/11/29 10:29:13;;;;;;;26.00;16.58;;;;;;;7.94;100.00;101792.59;4983351;28;20038;-53
2022/11/29 10:31:43;;;;;;;24.20;16.33;;;;;;;7.94;100.00;101793.44;5006275;28;20045;-48
2022/11/29 10:34:17;;;;;;;26.80;16.23;;;;;;;7.98;100.00;101794.63;4979898;28;20549;-47
2022/11/29 10:36:51;;;;;;;26.73;16.85;;;;;;;7.99;100.00;101795.47;4959714;28;20078;-49
2022/11/29 10:39:42;;;;;;;25.10;16.75;;;;;;;7.96;100.00;101785.91;4975111;28;20505;-50
2022/11/29 10:45:34;;;;;;;24.48;15.77;;;;;;;7.99;100.00;101780.03;4967366;28;20505;-49
2022/11/29 10:48:03;;;;;;;27.38;16.17;;;;;;;7.98;100.00;101789.19;4967537;28;20109;-48
2022/11/29 10:50:33;;;;;;;24.15;15.90;;;;;;;7.91;100.00;101777.59;5012647;28;20046;-52
2022/11/29 10:53:08;;;;;;;28.02;15.35;;;;;;;7.87;100.00;101785.38;4979774;28;20487;-49
2022/11/29 10:55:44;;;;;;;23.15;14.80;;;;;;;7.84;100.00;101788.53;5015467;28;20046;-49
2022/11/29 10:58:18;;;;;;;22.65;14.65;;;;;;;7.84;100.00;101793.13;4997751;28;20385;-51
2022/11/29 11:00:57;;;;;;;21.38;15.02;;;;;;;7.89;100.00;101790.59;4988794;28;20042;-51
2022/11/29 11:03:28;;;;;;;22.92;15.98;;;;;;;7.90;100.00;101792.22;4959224;28;20042;-51
2022/11/29 11:06:21;;;;;;;24.83;16.27;;;;;;;7.94;100.00;101789.88;5014587;28;20046;-49
2022/11/29 11:08:56;;;;;;;23.48;15.32;;;;;;;7.98;100.00;101794.63;4998703;28;20108;-53
2022/11/29 11:11:31;;;;;;;25.10;16.33;;;;;;;8.03;100.00;101794.81;4998186;28;20096;-50
2022/11/29 11:14:04;;;;;;;27.90;16.00;;;;;;;8.03;100.00;101800.22;5007957;28;20042;-51
2022/11/29 11:16:32;;;;;;;22.70;15.57;;;;;;;7.98;100.00;101801.94;5008486;28;20050;-48
2022/11/29 11:19:29;;;;;;;21.48;14.18;;;;;;;7.96;100.00;101796.75;5014873;28;20093;-49
2022/11/29 11:21:59;;;;;;;21.38;13.40;;;;;;;7.93;100.00;101802.63;4959623;28;20048;-49
2022/11/29 11:24:29;;;;;;;21.35;13.90;;;;;;;7.93;100.00;101808.06;4997287;28;20042;-50
2022/11/29 11:26:58;;;;;;;23.27;13.88;;;;;;;7.93;100.00;101802.63;5014560;28;20092;-49
2022/11/29 11:29:37;;;;;;;20.02;13.27;;;;;;;7.94;100.00;101798.00;5014847;28;20050;-50
2022/11/29 11:32:14;;;;;;;24.73;14.32;;;;;;;7.97;100.00;101800.31;4968932;28;20101;-51
2022/11/29 11:34:49;;;;;;;;;;;;;;;8.00;100.00;101803.38;4988851;28;20046;-50
2022/11/29 11:37:27;;;;;;;24.77;15.15;;;;;;;8.03;100.00;101802.94;4974188;28;19922;-47
2022/11/29 11:39:57;;;;;;;24.00;14.98;;;;;;;8.02;100.00;101806.69;4981238;28;20039;-50
2022/11/29 11:42:39;;;;;;;26.45;16.00;;;;;;;7.94;100.00;101814.28;4973956;28;20043;-49
2022/11/29 11:45:09;;;;;;;26.35;15.60;;;;;;;7.95;100.00;101805.94;4975234;28;20043;-49
2022/11/29 11:47:52;;;;;;;28.27;16.00;;;;;;;7.95;100.00;101822.22;4975782;28;20046;-50
2022/11/29 11:50:40;;;;;;;24.98;14.65;;;;;;;7.94;100.00;101820.56;4981075;28;20041;-50
2022/11/29 11:53:18;;;;;;;23.50;14.65;;;;;;;7.96;100.00;101837.47;4974747;28;20438;-47
2022/11/29 11:55:59;;;;;;;21.40;13.70;;;;;;;7.92;100.00;101838.16;4975144;28;20086;-48
2022/11/29 11:58:38;;;;;;;21.30;14.00;;;;;;;7.89;100.00;101828.56;4947431;28;20528;-49
2022/11/29 12:01:11;;;;;;;24.95;15.52;;;;;;;7.84;100.00;101831.97;4988522;28;20050;-50
2022/11/29 12:04:04;;;;;;;23.25;13.50;;;;;;;7.79;100.00;101823.66;4975208;28;20097;-48
2022/11/29 12:06:51;;;;;;;26.17;14.40;;;;;;;7.86;100.00;101831.72;4973027;28;20051;-49
2022/11/29 12:09:18;;;;;;;;;;;;;;;7.92;100.00;101830.81;4975249;28;20050;-51
2022/11/29 12:12:09;;;;;;;26.10;14.48;;;;;;;7.96;100.00;101831.19;4987864;28;19922;-49